Varzea Grande, Brazil
Current Conditions -  °F | °C
As of 5:00 PM on Tuesday 27 Jan 2015 (Local Time) from SBTE Reporting Station
Few Clouds Few Clouds  
Wind Chill: 95°   Ceiling: Unl
Heat Index: 95°   Visibility: 6mi
Dew Point: 61°   Wind: 7mph
Humidity: 32%   Direction: 290°WNW
Pressure: 29.77"   Gusts: NA
Location:  6.54°S, 42.23°W
Report Text: SBTE 272000Z 29006KT 9999 FEW030 35/16 Q1008
Loading
Personal Weather Stations






























Interactive Weather Map New forecast layout! Learn more

10-Day Weather Forecast

Advertisements
Track Severe Weather on mobile